sensor_id;sensor_type;location;lat;lon;timestamp;temperature;humidity
10572;DHT22;5334;48.928;12.704;2023-05-14T00:01:25;11.20;99.90
10572;DHT22;5334;48.928;12.704;2023-05-14T00:06:16;11.20;99.90
10572;DHT22;5334;48.928;12.704;2023-05-14T00:08:42;11.10;99.90
10572;DHT22;5334;48.928;12.704;2023-05-14T00:11:08;11.10;99.90
10572;DHT22;5334;48.928;12.704;2023-05-14T00:13:34;11.10;99.90
10572;DHT22;5334;48.928;12.704;2023-05-14T00:16:00;11.10;99.90
10572;DHT22;5334;48.928;12.704;2023-05-14T00:20:52;11.00;99.90
10572;DHT22;5334;48.928;12.704;2023-05-14T00:23:20;10.90;99.90
10572;DHT22;5334;48.928;12.704;2023-05-14T00:25:46;10.90;99.90
10572;DHT22;5334;48.928;12.704;2023-05-14T00:28:11;10.80;99.90
10572;DHT22;5334;48.928;12.704;2023-05-14T00:30:37;10.70;99.90
10572;DHT22;5334;48.928;12.704;2023-05-14T00:33:04;10.70;99.90
10572;DHT22;5334;48.928;12.704;2023-05-14T00:35:30;10.80;99.90
10572;DHT22;5334;48.928;12.704;2023-05-14T00:37:56;10.60;99.90
10572;DHT22;5334;48.928;12.704;2023-05-14T00:42:51;10.50;99.90
10572;DHT22;5334;48.928;12.704;2023-05-14T00:45:17;10.30;99.90
10572;DHT22;5334;48.928;12.704;2023-05-14T00:47:43;10.30;99.90
10572;DHT22;5334;48.928;12.704;2023-05-14T00:50:09;10.20;99.90
10572;DHT22;5334;48.928;12.704;2023-05-14T00:52:36;10.10;99.90
10572;DHT22;5334;48.928;12.704;2023-05-14T00:55:06;10.10;99.90
10572;DHT22;5334;48.928;12.704;2023-05-14T00:57:33;10.10;99.90
10572;DHT22;5334;48.928;12.704;2023-05-14T00:59:59;10.00;99.90
10572;DHT22;5334;48.928;12.704;2023-05-14T01:02:25;10.00;99.90
10572;DHT22;5334;48.928;12.704;2023-05-14T01:04:51;10.00;99.90
10572;DHT22;5334;48.928;12.704;2023-05-14T01:07:32;9.90;99.90
10572;DHT22;5334;48.928;12.704;2023-05-14T01:10:10;9.90;99.90
10572;DHT22;5334;48.928;12.704;2023-05-14T01:17:47;9.80;99.90
10572;DHT22;5334;48.928;12.704;2023-05-14T01:20:15;9.80;99.90
10572;DHT22;5334;48.928;12.704;2023-05-14T01:22:41;9.70;99.90
10572;DHT22;5334;48.928;12.704;2023-05-14T01:25:07;9.70;99.90
10572;DHT22;5334;48.928;12.704;2023-05-14T01:32:57;9.60;99.90
10572;DHT22;5334;48.928;12.704;2023-05-14T01:35:28;9.60;99.90
10572;DHT22;5334;48.928;12.704;2023-05-14T01:37:56;9.50;99.90
10572;DHT22;5334;48.928;12.704;2023-05-14T01:40:23;9.50;99.90
10572;DHT22;5334;48.928;12.704;2023-05-14T01:42:50;9.50;99.90
10572;DHT22;5334;48.928;12.704;2023-05-14T01:45:19;9.40;99.90
10572;DHT22;5334;48.928;12.704;2023-05-14T01:47:45;9.40;99.90
10572;DHT22;5334;48.928;12.704;2023-05-14T01:50:11;9.40;99.90
10572;DHT22;5334;48.928;12.704;2023-05-14T01:52:37;9.40;99.90
10572;DHT22;5334;48.928;12.704;2023-05-14T01:55:03;9.40;99.90
10572;DHT22;5334;48.928;12.704;2023-05-14T01:57:30;9.40;99.90
10572;DHT22;5334;48.928;12.704;2023-05-14T01:59:55;9.40;99.90
10572;DHT22;5334;48.928;12.704;2023-05-14T02:02:21;9.40;99.90
10572;DHT22;5334;48.928;12.704;2023-05-14T02:04:47;9.40;99.90
10572;DHT22;5334;48.928;12.704;2023-05-14T02:07:12;9.50;99.90
10572;DHT22;5334;48.928;12.704;2023-05-14T02:09:38;9.50;99.90
10572;DHT22;5334;48.928;12.704;2023-05-14T02:12:05;9.50;99.90
10572;DHT22;5334;48.928;12.704;2023-05-14T02:14:30;9.60;99.90
10572;DHT22;5334;48.928;12.704;2023-05-14T02:16:56;9.60;99.90
10572;DHT22;5334;48.928;12.704;2023-05-14T02:19:22;9.60;99.90
10572;DHT22;5334;48.928;12.704;2023-05-14T02:21:47;9.70;99.90
10572;DHT22;5334;48.928;12.704;2023-05-14T02:24:13;9.70;99.90
10572;DHT22;5334;48.928;12.704;2023-05-14T02:26:39;9.70;99.90
10572;DHT22;5334;48.928;12.704;2023-05-14T02:29:04;9.70;99.90
10572;DHT22;5334;48.928;12.704;2023-05-14T02:31:30;9.70;99.90
10572;DHT22;5334;48.928;12.704;2023-05-14T02:33:56;9.70;99.90
10572;DHT22;5334;48.928;12.704;2023-05-14T02:36:21;9.60;99.90
10572;DHT22;5334;48.928;12.704;2023-05-14T02:38:47;9.60;99.90
10572;DHT22;5334;48.928;12.704;2023-05-14T02:41:12;9.60;99.90
10572;DHT22;5334;48.928;12.704;2023-05-14T02:43:38;9.60;99.90
10572;DHT22;5334;48.928;12.704;2023-05-14T02:46:04;9.70;99.90
10572;DHT22;5334;48.928;12.704;2023-05-14T02:48:29;9.70;99.90
10572;DHT22;5334;48.928;12.704;2023-05-14T02:50:55;9.70;99.90
10572;DHT22;5334;48.928;12.704;2023-05-14T02:53:21;9.70;99.90
10572;DHT22;5334;48.928;12.704;2023-05-14T02:55:46;9.70;99.90
10572;DHT22;5334;48.928;12.704;2023-05-14T02:58:12;9.70;99.90
10572;DHT22;5334;48.928;12.704;2023-05-14T03:00:37;9.70;99.90
10572;DHT22;5334;48.928;12.704;2023-05-14T03:03:03;9.70;99.90
10572;DHT22;5334;48.928;12.704;2023-05-14T03:05:29;9.70;99.90
10572;DHT22;5334;48.928;12.704;2023-05-14T03:07:54;9.70;99.90
10572;DHT22;5334;48.928;12.704;2023-05-14T03:10:20;9.70;99.90
10572;DHT22;5334;48.928;12.704;2023-05-14T03:12:46;9.70;99.90
10572;DHT22;5334;48.928;12.704;2023-05-14T03:15:12;9.70;99.90
10572;DHT22;5334;48.928;12.704;2023-05-14T03:17:37;9.60;99.90
10572;DHT22;5334;48.928;12.704;2023-05-14T03:20:03;9.60;99.90
10572;DHT22;5334;48.928;12.704;2023-05-14T03:22:29;9.60;99.90
10572;DHT22;5334;48.928;12.704;2023-05-14T03:24:55;9.50;99.90
10572;DHT22;5334;48.928;12.704;2023-05-14T03:27:21;9.50;99.90
10572;DHT22;5334;48.928;12.704;2023-05-14T03:29:47;9.50;99.90
10572;DHT22;5334;48.928;12.704;2023-05-14T03:32:13;9.50;99.90
10572;DHT22;5334;48.928;12.704;2023-05-14T03:34:38;9.50;99.90
10572;DHT22;5334;48.928;12.704;2023-05-14T03:37:04;9.50;99.90
10572;DHT22;5334;48.928;12.704;2023-05-14T03:39:30;9.50;99.90
10572;DHT22;5334;48.928;12.704;2023-05-14T03:41:56;9.60;99.90
10572;DHT22;5334;48.928;12.704;2023-05-14T03:44:23;9.60;99.90
10572;DHT22;5334;48.928;12.704;2023-05-14T03:46:49;9.50;99.90
10572;DHT22;5334;48.928;12.704;2023-05-14T03:49:15;9.50;99.90
10572;DHT22;5334;48.928;12.704;2023-05-14T03:51:40;9.40;99.90
10572;DHT22;5334;48.928;12.704;2023-05-14T03:54:06;9.40;99.90
10572;DHT22;5334;48.928;12.704;2023-05-14T03:56:32;9.40;99.90
10572;DHT22;5334;48.928;12.704;2023-05-14T03:58:57;9.40;99.90
10572;DHT22;5334;48.928;12.704;2023-05-14T04:01:23;9.40;99.90
10572;DHT22;5334;48.928;12.704;2023-05-14T04:03:49;9.40;99.90
10572;DHT22;5334;48.928;12.704;2023-05-14T04:06:14;9.40;99.90
10572;DHT22;5334;48.928;12.704;2023-05-14T04:08:40;9.50;99.90
10572;DHT22;5334;48.928;12.704;2023-05-14T04:11:06;9.50;99.90
10572;DHT22;5334;48.928;12.704;2023-05-14T04:13:32;9.50;99.90
10572;DHT22;5334;48.928;12.704;2023-05-14T04:15:58;9.60;99.90
10572;DHT22;5334;48.928;12.704;2023-05-14T04:18:24;9.60;99.90
10572;DHT22;5334;48.928;12.704;2023-05-14T04:20:49;9.70;99.90
10572;DHT22;5334;48.928;12.704;2023-05-14T04:23:15;9.70;99.90
10572;DHT22;5334;48.928;12.704;2023-05-14T04:25:41;9.80;99.90
10572;DHT22;5334;48.928;12.704;2023-05-14T04:28:06;9.90;99.90
10572;DHT22;5334;48.928;12.704;2023-05-14T04:30:32;9.90;99.90
10572;DHT22;5334;48.928;12.704;2023-05-14T04:32:58;10.00;99.90
10572;DHT22;5334;48.928;12.704;2023-05-14T04:35:24;10.00;99.90
10572;DHT22;5334;48.928;12.704;2023-05-14T04:37:49;10.10;99.90
10572;DHT22;5334;48.928;12.704;2023-05-14T04:40:15;10.20;99.90
10572;DHT22;5334;48.928;12.704;2023-05-14T04:42:41;10.40;99.90
10572;DHT22;5334;48.928;12.704;2023-05-14T04:45:07;10.60;99.90
10572;DHT22;5334;48.928;12.704;2023-05-14T04:47:33;10.80;99.90
10572;DHT22;5334;48.928;12.704;2023-05-14T04:49:59;11.00;99.90
10572;DHT22;5334;48.928;12.704;2023-05-14T04:52:24;11.20;99.90
10572;DHT22;5334;48.928;12.704;2023-05-14T04:54:50;11.30;99.90
10572;DHT22;5334;48.928;12.704;2023-05-14T04:57:16;11.40;99.90
10572;DHT22;5334;48.928;12.704;2023-05-14T04:59:42;11.40;99.90
10572;DHT22;5334;48.928;12.704;2023-05-14T05:02:07;11.40;99.90
10572;DHT22;5334;48.928;12.704;2023-05-14T05:04:33;11.50;99.90
10572;DHT22;5334;48.928;12.704;2023-05-14T05:06:58;11.70;99.90
10572;DHT22;5334;48.928;12.704;2023-05-14T05:09:24;11.80;99.90
10572;DHT22;5334;48.928;12.704;2023-05-14T05:11:50;12.10;99.90
10572;DHT22;5334;48.928;12.704;2023-05-14T05:14:16;12.40;99.90
10572;DHT22;5334;48.928;12.704;2023-05-14T05:16:41;12.70;99.90
10572;DHT22;5334;48.928;12.704;2023-05-14T05:19:07;12.90;99.90
10572;DHT22;5334;48.928;12.704;2023-05-14T05:21:33;13.20;99.90
10572;DHT22;5334;48.928;12.704;2023-05-14T05:23:59;13.40;99.90
10572;DHT22;5334;48.928;12.704;2023-05-14T05:26:26;13.60;99.90
10572;DHT22;5334;48.928;12.704;2023-05-14T05:28:52;13.70;99.90
10572;DHT22;5334;48.928;12.704;2023-05-14T05:31:18;13.80;99.90
10572;DHT22;5334;48.928;12.704;2023-05-14T05:33:43;14.00;99.90
10572;DHT22;5334;48.928;12.704;2023-05-14T05:36:09;14.20;99.90
10572;DHT22;5334;48.928;12.704;2023-05-14T05:38:35;14.40;99.90
10572;DHT22;5334;48.928;12.704;2023-05-14T05:41:00;14.60;99.90
10572;DHT22;5334;48.928;12.704;2023-05-14T05:43:26;14.80;99.90
10572;DHT22;5334;48.928;12.704;2023-05-14T05:45:53;15.00;99.90
10572;DHT22;5334;48.928;12.704;2023-05-14T05:48:19;15.20;99.90
10572;DHT22;5334;48.928;12.704;2023-05-14T05:50:48;15.40;99.90
10572;DHT22;5334;48.928;12.704;2023-05-14T05:53:14;15.50;99.90
10572;DHT22;5334;48.928;12.704;2023-05-14T05:55:43;15.70;99.90
10572;DHT22;5334;48.928;12.704;2023-05-14T05:58:09;15.90;99.90
10572;DHT22;5334;48.928;12.704;2023-05-14T06:00:35;16.00;99.90
10572;DHT22;5334;48.928;12.704;2023-05-14T06:03:00;16.30;99.90
10572;DHT22;5334;48.928;12.704;2023-05-14T06:05:26;16.50;99.90
10572;DHT22;5334;48.928;12.704;2023-05-14T06:07:52;16.60;99.90
10572;DHT22;5334;48.928;12.704;2023-05-14T06:10:20;16.70;99.90
10572;DHT22;5334;48.928;12.704;2023-05-14T06:12:46;16.80;99.90
10572;DHT22;5334;48.928;12.704;2023-05-14T06:15:12;17.20;99.90
10572;DHT22;5334;48.928;12.704;2023-05-14T06:17:38;17.40;99.90
10572;DHT22;5334;48.928;12.704;2023-05-14T06:20:04;17.70;99.90
10572;DHT22;5334;48.928;12.704;2023-05-14T06:22:30;18.00;99.90
10572;DHT22;5334;48.928;12.704;2023-05-14T06:24:56;18.10;99.90
10572;DHT22;5334;48.928;12.704;2023-05-14T06:27:21;18.30;99.90
10572;DHT22;5334;48.928;12.704;2023-05-14T06:29:47;18.10;99.90
10572;DHT22;5334;48.928;12.704;2023-05-14T06:32:13;17.70;99.90
10572;DHT22;5334;48.928;12.704;2023-05-14T06:34:40;17.20;99.90
10572;DHT22;5334;48.928;12.704;2023-05-14T06:37:07;17.10;99.90
10572;DHT22;5334;48.928;12.704;2023-05-14T06:39:34;16.80;99.90
10572;DHT22;5334;48.928;12.704;2023-05-14T06:41:59;16.70;99.90
10572;DHT22;5334;48.928;12.704;2023-05-14T06:44:25;16.90;99.90
10572;DHT22;5334;48.928;12.704;2023-05-14T06:46:51;17.20;99.90
10572;DHT22;5334;48.928;12.704;2023-05-14T06:49:17;17.40;99.90
10572;DHT22;5334;48.928;12.704;2023-05-14T06:51:43;17.50;99.90
10572;DHT22;5334;48.928;12.704;2023-05-14T06:54:08;17.60;99.90
10572;DHT22;5334;48.928;12.704;2023-05-14T06:56:34;17.70;99.90
10572;DHT22;5334;48.928;12.704;2023-05-14T06:58:59;17.90;99.90
10572;DHT22;5334;48.928;12.704;2023-05-14T07:01:25;18.10;99.90
10572;DHT22;5334;48.928;12.704;2023-05-14T07:03:51;18.30;99.90
10572;DHT22;5334;48.928;12.704;2023-05-14T07:06:16;18.20;99.90
10572;DHT22;5334;48.928;12.704;2023-05-14T07:08:42;18.40;99.90
10572;DHT22;5334;48.928;12.704;2023-05-14T07:11:10;18.60;99.90
10572;DHT22;5334;48.928;12.704;2023-05-14T07:13:37;18.30;99.90
10572;DHT22;5334;48.928;12.704;2023-05-14T07:16:03;17.70;99.90
10572;DHT22;5334;48.928;12.704;2023-05-14T07:18:29;17.00;99.90
10572;DHT22;5334;48.928;12.704;2023-05-14T07:20:55;16.60;99.90
10572;DHT22;5334;48.928;12.704;2023-05-14T07:23:21;16.80;99.90
10572;DHT22;5334;48.928;12.704;2023-05-14T07:25:46;17.00;99.90
10572;DHT22;5334;48.928;12.704;2023-05-14T07:28:12;17.20;99.90
10572;DHT22;5334;48.928;12.704;2023-05-14T07:30:38;17.50;99.90
10572;DHT22;5334;48.928;12.704;2023-05-14T07:33:03;17.90;99.90
10572;DHT22;5334;48.928;12.704;2023-05-14T07:35:29;18.30;99.90
10572;DHT22;5334;48.928;12.704;2023-05-14T07:37:55;18.70;99.90
10572;DHT22;5334;48.928;12.704;2023-05-14T07:40:21;19.20;99.90
10572;DHT22;5334;48.928;12.704;2023-05-14T07:42:46;19.50;99.90
10572;DHT22;5334;48.928;12.704;2023-05-14T07:45:12;19.80;99.90
10572;DHT22;5334;48.928;12.704;2023-05-14T07:50:05;19.50;99.90
10572;DHT22;5334;48.928;12.704;2023-05-14T07:52:31;19.30;99.90
10572;DHT22;5334;48.928;12.704;2023-05-14T07:54:57;19.10;99.90
10572;DHT22;5334;48.928;12.704;2023-05-14T07:57:22;19.20;99.90
10572;DHT22;5334;48.928;12.704;2023-05-14T07:59:48;19.60;99.90
10572;DHT22;5334;48.928;12.704;2023-05-14T08:02:14;20.10;99.90
10572;DHT22;5334;48.928;12.704;2023-05-14T08:04:41;20.30;99.60
10572;DHT22;5334;48.928;12.704;2023-05-14T08:11:59;20.70;99.40
10572;DHT22;5334;48.928;12.704;2023-05-14T08:14:24;20.80;99.90
10572;DHT22;5334;48.928;12.704;2023-05-14T08:16:50;20.80;99.50
10572;DHT22;5334;48.928;12.704;2023-05-14T08:19:17;20.50;98.90
10572;DHT22;5334;48.928;12.704;2023-05-14T08:21:43;20.10;99.30
10572;DHT22;5334;48.928;12.704;2023-05-14T08:24:08;20.00;99.20
10572;DHT22;5334;48.928;12.704;2023-05-14T08:26:34;20.20;99.30
10572;DHT22;5334;48.928;12.704;2023-05-14T08:29:00;20.50;99.50
10572;DHT22;5334;48.928;12.704;2023-05-14T08:31:25;20.40;99.90
10572;DHT22;5334;48.928;12.704;2023-05-14T08:33:51;20.30;99.90
10572;DHT22;5334;48.928;12.704;2023-05-14T08:36:17;20.10;99.60
10572;DHT22;5334;48.928;12.704;2023-05-14T08:38:43;20.20;99.90
10572;DHT22;5334;48.928;12.704;2023-05-14T08:41:10;20.30;99.90
10572;DHT22;5334;48.928;12.704;2023-05-14T08:46:09;21.00;98.80
10572;DHT22;5334;48.928;12.704;2023-05-14T08:48:39;20.60;99.30
10572;DHT22;5334;48.928;12.704;2023-05-14T08:51:09;20.60;99.40
10572;DHT22;5334;48.928;12.704;2023-05-14T08:53:36;20.50;98.70
10572;DHT22;5334;48.928;12.704;2023-05-14T08:56:04;20.20;99.30
10572;DHT22;5334;48.928;12.704;2023-05-14T08:58:31;20.20;99.70
10572;DHT22;5334;48.928;12.704;2023-05-14T09:00:57;20.70;99.90
10572;DHT22;5334;48.928;12.704;2023-05-14T09:03:22;21.10;99.10
10572;DHT22;5334;48.928;12.704;2023-05-14T09:05:50;21.00;98.70
10572;DHT22;5334;48.928;12.704;2023-05-14T09:08:16;21.00;99.10
10572;DHT22;5334;48.928;12.704;2023-05-14T09:10:42;21.40;98.80
10572;DHT22;5334;48.928;12.704;2023-05-14T09:15:36;22.30;96.80
10572;DHT22;5334;48.928;12.704;2023-05-14T09:18:04;22.60;99.90
10572;DHT22;5334;48.928;12.704;2023-05-14T09:23:14;23.00;96.20
10572;DHT22;5334;48.928;12.704;2023-05-14T09:25:42;22.90;96.70
10572;DHT22;5334;48.928;12.704;2023-05-14T09:28:08;22.70;94.20
10572;DHT22;5334;48.928;12.704;2023-05-14T09:30:34;22.40;95.10
10572;DHT22;5334;48.928;12.704;2023-05-14T09:33:01;22.80;96.80
10572;DHT22;5334;48.928;12.704;2023-05-14T09:35:31;22.70;96.50
10572;DHT22;5334;48.928;12.704;2023-05-14T09:37:57;22.60;95.60
10572;DHT22;5334;48.928;12.704;2023-05-14T09:40:32;22.30;95.90
10572;DHT22;5334;48.928;12.704;2023-05-14T09:42:57;21.90;95.90
10572;DHT22;5334;48.928;12.704;2023-05-14T09:45:26;21.40;95.80
10572;DHT22;5334;48.928;12.704;2023-05-14T09:47:51;21.20;97.30
10572;DHT22;5334;48.928;12.704;2023-05-14T09:50:17;21.50;97.70
10572;DHT22;5334;48.928;12.704;2023-05-14T09:52:43;21.60;97.50
10572;DHT22;5334;48.928;12.704;2023-05-14T09:55:12;21.80;97.80
10572;DHT22;5334;48.928;12.704;2023-05-14T09:57:38;22.20;96.70
10572;DHT22;5334;48.928;12.704;2023-05-14T10:00:04;22.80;97.70
10572;DHT22;5334;48.928;12.704;2023-05-14T10:02:35;23.10;96.70
10572;DHT22;5334;48.928;12.704;2023-05-14T10:05:03;22.80;96.00
10572;DHT22;5334;48.928;12.704;2023-05-14T10:07:45;22.50;96.20
10572;DHT22;5334;48.928;12.704;2023-05-14T10:10:17;22.20;96.60
10572;DHT22;5334;48.928;12.704;2023-05-14T10:12:48;22.20;97.00
10572;DHT22;5334;48.928;12.704;2023-05-14T10:15:23;22.40;96.00
10572;DHT22;5334;48.928;12.704;2023-05-14T10:17:55;22.10;96.80
10572;DHT22;5334;48.928;12.704;2023-05-14T10:20:21;21.50;96.90
10572;DHT22;5334;48.928;12.704;2023-05-14T10:22:49;21.00;96.80
10572;DHT22;5334;48.928;12.704;2023-05-14T10:25:15;20.60;97.90
10572;DHT22;5334;48.928;12.704;2023-05-14T10:27:41;20.20;98.70
10572;DHT22;5334;48.928;12.704;2023-05-14T10:30:10;19.90;98.80
10572;DHT22;5334;48.928;12.704;2023-05-14T10:32:37;19.90;99.60
10572;DHT22;5334;48.928;12.704;2023-05-14T10:35:15;20.30;99.60
10572;DHT22;5334;48.928;12.704;2023-05-14T10:37:41;20.70;99.10
10572;DHT22;5334;48.928;12.704;2023-05-14T10:40:08;21.40;98.60
10572;DHT22;5334;48.928;12.704;2023-05-14T10:42:36;21.70;97.70
10572;DHT22;5334;48.928;12.704;2023-05-14T10:45:06;21.30;96.60
10572;DHT22;5334;48.928;12.704;2023-05-14T10:47:37;21.30;97.90
10572;DHT22;5334;48.928;12.704;2023-05-14T10:50:05;21.40;97.10
10572;DHT22;5334;48.928;12.704;2023-05-14T10:52:32;21.20;96.90
10572;DHT22;5334;48.928;12.704;2023-05-14T10:55:01;21.00;97.70
10572;DHT22;5334;48.928;12.704;2023-05-14T10:57:29;20.80;98.40
10572;DHT22;5334;48.928;12.704;2023-05-14T10:59:59;20.50;97.90
10572;DHT22;5334;48.928;12.704;2023-05-14T11:02:31;20.70;98.40
10572;DHT22;5334;48.928;12.704;2023-05-14T11:05:14;20.90;99.10
10572;DHT22;5334;48.928;12.704;2023-05-14T11:07:46;21.10;99.00
10572;DHT22;5334;48.928;12.704;2023-05-14T11:10:13;20.90;98.20
10572;DHT22;5334;48.928;12.704;2023-05-14T11:12:42;20.60;98.20
10572;DHT22;5334;48.928;12.704;2023-05-14T11:15:12;20.80;98.80
10572;DHT22;5334;48.928;12.704;2023-05-14T11:17:40;21.00;99.60
10572;DHT22;5334;48.928;12.704;2023-05-14T11:20:07;21.40;99.00
10572;DHT22;5334;48.928;12.704;2023-05-14T11:22:34;21.60;98.50
10572;DHT22;5334;48.928;12.704;2023-05-14T11:25:00;21.60;97.90
10572;DHT22;5334;48.928;12.704;2023-05-14T11:27:26;21.40;98.90
10572;DHT22;5334;48.928;12.704;2023-05-14T11:29:52;21.40;98.10
10572;DHT22;5334;48.928;12.704;2023-05-14T11:32:19;21.50;98.30
10572;DHT22;5334;48.928;12.704;2023-05-14T11:34:45;21.70;98.90
10572;DHT22;5334;48.928;12.704;2023-05-14T11:37:12;22.40;98.10
10572;DHT22;5334;48.928;12.704;2023-05-14T11:39:44;23.10;98.10
10572;DHT22;5334;48.928;12.704;2023-05-14T11:42:11;24.10;95.80
10572;DHT22;5334;48.928;12.704;2023-05-14T11:44:39;24.30;95.40
10572;DHT22;5334;48.928;12.704;2023-05-14T11:47:06;24.50;93.90
10572;DHT22;5334;48.928;12.704;2023-05-14T11:49:31;23.70;94.90
10572;DHT22;5334;48.928;12.704;2023-05-14T11:52:03;23.40;96.60
10572;DHT22;5334;48.928;12.704;2023-05-14T11:54:31;23.40;95.80
10572;DHT22;5334;48.928;12.704;2023-05-14T11:56:59;23.10;96.60
10572;DHT22;5334;48.928;12.704;2023-05-14T11:59:29;22.70;96.60
10572;DHT22;5334;48.928;12.704;2023-05-14T12:01:58;22.30;97.40
10572;DHT22;5334;48.928;12.704;2023-05-14T12:04:24;21.80;98.40
10572;DHT22;5334;48.928;12.704;2023-05-14T12:06:52;21.00;99.00
10572;DHT22;5334;48.928;12.704;2023-05-14T12:09:19;20.50;99.90
10572;DHT22;5334;48.928;12.704;2023-05-14T12:11:46;20.00;99.90
10572;DHT22;5334;48.928;12.704;2023-05-14T12:14:21;19.60;99.90
10572;DHT22;5334;48.928;12.704;2023-05-14T12:16:48;19.40;99.90
10572;DHT22;5334;48.928;12.704;2023-05-14T12:19:18;19.00;99.90
10572;DHT22;5334;48.928;12.704;2023-05-14T12:21:45;18.50;99.90
10572;DHT22;5334;48.928;12.704;2023-05-14T12:24:13;18.10;99.90
10572;DHT22;5334;48.928;12.704;2023-05-14T12:26:43;17.40;99.90
10572;DHT22;5334;48.928;12.704;2023-05-14T12:29:12;16.90;99.90
10572;DHT22;5334;48.928;12.704;2023-05-14T12:31:47;16.30;99.90
10572;DHT22;5334;48.928;12.704;2023-05-14T12:34:13;15.70;99.90
10572;DHT22;5334;48.928;12.704;2023-05-14T12:36:44;15.10;99.90
10572;DHT22;5334;48.928;12.704;2023-05-14T12:39:12;14.70;99.90
10572;DHT22;5334;48.928;12.704;2023-05-14T12:41:41;14.30;99.90
10572;DHT22;5334;48.928;12.704;2023-05-14T12:44:12;14.00;99.90
10572;DHT22;5334;48.928;12.704;2023-05-14T12:46:38;13.60;99.90
10572;DHT22;5334;48.928;12.704;2023-05-14T12:49:09;13.40;99.90
10572;DHT22;5334;48.928;12.704;2023-05-14T12:51:35;13.20;99.90
10572;DHT22;5334;48.928;12.704;2023-05-14T12:54:04;13.10;99.90
10572;DHT22;5334;48.928;12.704;2023-05-14T12:56:30;12.80;99.90
10572;DHT22;5334;48.928;12.704;2023-05-14T12:58:56;12.70;99.90
10572;DHT22;5334;48.928;12.704;2023-05-14T13:01:23;12.70;99.90
10572;DHT22;5334;48.928;12.704;2023-05-14T13:03:52;12.70;99.90
10572;DHT22;5334;48.928;12.704;2023-05-14T13:06:17;12.80;99.90
10572;DHT22;5334;48.928;12.704;2023-05-14T13:08:43;12.90;99.90
10572;DHT22;5334;48.928;12.704;2023-05-14T13:11:09;13.10;99.90
10572;DHT22;5334;48.928;12.704;2023-05-14T13:13:37;13.20;99.90
10572;DHT22;5334;48.928;12.704;2023-05-14T13:16:03;13.20;99.90
10572;DHT22;5334;48.928;12.704;2023-05-14T13:18:29;13.20;99.90
10572;DHT22;5334;48.928;12.704;2023-05-14T13:21:03;13.20;99.90
10572;DHT22;5334;48.928;12.704;2023-05-14T13:23:37;13.60;99.90
10572;DHT22;5334;48.928;12.704;2023-05-14T13:26:03;13.60;99.90
10572;DHT22;5334;48.928;12.704;2023-05-14T13:28:29;13.70;99.90
10572;DHT22;5334;48.928;12.704;2023-05-14T13:31:11;13.80;99.90
10572;DHT22;5334;48.928;12.704;2023-05-14T13:33:42;13.90;99.90
10572;DHT22;5334;48.928;12.704;2023-05-14T13:36:09;14.00;99.90
10572;DHT22;5334;48.928;12.704;2023-05-14T13:38:37;14.30;99.90
10572;DHT22;5334;48.928;12.704;2023-05-14T13:41:03;14.20;99.90
10572;DHT22;5334;48.928;12.704;2023-05-14T13:43:38;14.20;99.90
10572;DHT22;5334;48.928;12.704;2023-05-14T13:46:04;14.50;99.90
10572;DHT22;5334;48.928;12.704;2023-05-14T13:48:47;14.30;99.90
10572;DHT22;5334;48.928;12.704;2023-05-14T13:51:12;14.60;99.90
10572;DHT22;5334;48.928;12.704;2023-05-14T13:53:38;14.40;99.90
10572;DHT22;5334;48.928;12.704;2023-05-14T13:56:04;14.20;99.90
10572;DHT22;5334;48.928;12.704;2023-05-14T13:58:30;14.20;99.90
10572;DHT22;5334;48.928;12.704;2023-05-14T14:00:56;14.20;99.90
10572;DHT22;5334;48.928;12.704;2023-05-14T14:03:22;13.90;99.90
10572;DHT22;5334;48.928;12.704;2023-05-14T14:05:48;14.20;99.90
10572;DHT22;5334;48.928;12.704;2023-05-14T14:08:14;14.20;99.90
10572;DHT22;5334;48.928;12.704;2023-05-14T14:10:40;14.30;99.90
10572;DHT22;5334;48.928;12.704;2023-05-14T14:13:07;14.50;99.90
10572;DHT22;5334;48.928;12.704;2023-05-14T14:15:33;14.50;99.90
10572;DHT22;5334;48.928;12.704;2023-05-14T14:17:58;14.60;99.90
10572;DHT22;5334;48.928;12.704;2023-05-14T14:20:24;14.60;99.90
10572;DHT22;5334;48.928;12.704;2023-05-14T14:22:50;14.70;99.90
10572;DHT22;5334;48.928;12.704;2023-05-14T14:25:22;14.70;99.90
10572;DHT22;5334;48.928;12.704;2023-05-14T14:27:50;14.70;99.90
10572;DHT22;5334;48.928;12.704;2023-05-14T14:30:23;14.60;99.90
10572;DHT22;5334;48.928;12.704;2023-05-14T14:32:52;14.60;99.90
10572;DHT22;5334;48.928;12.704;2023-05-14T14:35:18;14.60;99.90
10572;DHT22;5334;48.928;12.704;2023-05-14T14:37:45;14.60;99.90
10572;DHT22;5334;48.928;12.704;2023-05-14T14:40:14;14.60;99.90
10572;DHT22;5334;48.928;12.704;2023-05-14T14:42:41;14.60;99.90
10572;DHT22;5334;48.928;12.704;2023-05-14T14:45:08;14.50;99.90
10572;DHT22;5334;48.928;12.704;2023-05-14T14:47:34;14.60;99.90
10572;DHT22;5334;48.928;12.704;2023-05-14T14:50:00;14.60;99.90
10572;DHT22;5334;48.928;12.704;2023-05-14T14:52:26;14.50;99.90
10572;DHT22;5334;48.928;12.704;2023-05-14T14:54:53;14.50;99.90
10572;DHT22;5334;48.928;12.704;2023-05-14T14:57:19;14.50;99.90
10572;DHT22;5334;48.928;12.704;2023-05-14T14:59:48;14.50;99.90
10572;DHT22;5334;48.928;12.704;2023-05-14T15:02:17;14.50;99.90
10572;DHT22;5334;48.928;12.704;2023-05-14T15:07:08;14.50;99.90
10572;DHT22;5334;48.928;12.704;2023-05-14T15:09:34;14.60;99.90
10572;DHT22;5334;48.928;12.704;2023-05-14T15:12:00;14.60;99.90
10572;DHT22;5334;48.928;12.704;2023-05-14T15:14:26;14.60;99.90
10572;DHT22;5334;48.928;12.704;2023-05-14T15:16:51;14.60;99.90
10572;DHT22;5334;48.928;12.704;2023-05-14T15:26:44;14.70;99.90
10572;DHT22;5334;48.928;12.704;2023-05-14T15:29:10;14.90;99.90
10572;DHT22;5334;48.928;12.704;2023-05-14T15:34:02;15.10;99.90
10572;DHT22;5334;48.928;12.704;2023-05-14T15:36:28;15.20;99.90
10572;DHT22;5334;48.928;12.704;2023-05-14T15:38:53;15.30;99.90
10572;DHT22;5334;48.928;12.704;2023-05-14T15:41:19;15.20;99.90
10572;DHT22;5334;48.928;12.704;2023-05-14T15:43:45;15.10;99.90
10572;DHT22;5334;48.928;12.704;2023-05-14T15:48:37;15.50;99.90
10572;DHT22;5334;48.928;12.704;2023-05-14T15:51:02;15.50;99.90
10572;DHT22;5334;48.928;12.704;2023-05-14T15:53:28;15.70;99.90
10572;DHT22;5334;48.928;12.704;2023-05-14T15:55:54;15.80;99.90
10572;DHT22;5334;48.928;12.704;2023-05-14T15:58:20;15.90;99.90
10572;DHT22;5334;48.928;12.704;2023-05-14T16:00:46;16.00;99.90
10572;DHT22;5334;48.928;12.704;2023-05-14T16:03:11;16.10;99.90
10572;DHT22;5334;48.928;12.704;2023-05-14T16:05:37;16.20;99.90
10572;DHT22;5334;48.928;12.704;2023-05-14T16:08:03;16.20;99.90
10572;DHT22;5334;48.928;12.704;2023-05-14T16:10:28;16.20;99.90
10572;DHT22;5334;48.928;12.704;2023-05-14T16:12:54;16.20;99.90
10572;DHT22;5334;48.928;12.704;2023-05-14T16:15:20;16.30;99.90
10572;DHT22;5334;48.928;12.704;2023-05-14T16:17:45;15.70;99.90
10572;DHT22;5334;48.928;12.704;2023-05-14T16:20:11;16.50;99.90